Latest Coastal Weather Observations for Gladstone

IDQ60701

Issued at 12:42 pm EST Wednesday 16 October 2019 (issued every 10 minutes, with the page automatically refreshed every 10 minutes)

About coastal observations | Map of coastal stations | Coastal observations for QLD | Marine services | Other Formats
Station Details ID: 039123 Name: GLADSTONE RADAR Lat: -23.86 Lon: 151.26 Height: 74.5 m
Data from the previous 72 hours. | See also: Recent months at Gladstone
Date/Time
EST
Wind Sea
Height
m
Swell Vis
km
Cloud Weather Temp
°C
Press
hPa
Rain since
9am
mm
Dir  Spd
kts
Gust
kts
Height
m
Period
s
Dir
16/12:30pm NNE 10 17 - - - - - - - 26.3 1015.5 0.0
16/12:00pm NNE 11 17 - - - - - - - 26.4 1016.0 0.0
16/11:30am NNE 11 19 - - - - - - - 26.4 1016.0 0.0
16/11:00am NE 10 18 - - - - - - - 25.8 1016.4 0.0
16/10:30am NE 11 16 - - - - - - - 25.1 1016.8 0.0
16/10:00am NNE 9 14 - - - - - - - 23.6 1017.0 0.0
16/09:30am NE 9 14 - - - - - - - 24.3 1017.4 0.0
16/09:00am NNE 8 14 - - - - - - - 23.5 1017.5 0.0
16/08:30am NNE 8 15 - - - - - - - 23.3 1017.3 0.0
16/08:00am NNE 8 14 - - - - - - - 22.8 1017.1 0.0
16/07:30am NNE 8 15 - - - - - - - 22.5 1016.8 0.0
16/07:00am NNE 7 12 - - - - - - - 22.2 1016.6 0.0
16/06:30am NNE 8 13 - - - - - - - 22.2 1016.2 0.0
16/06:00am NNE 7 13 - - - - - - - 22.0 1015.8 0.0
16/05:30am NE 7 11 - - - - - - - 21.9 1015.3 0.0
16/05:00am NNE 7 11 - - - - - - - 21.9 1015.0 0.0
16/04:30am NNE 5 9 - - - - - - - 21.9 1014.7 0.0
16/04:00am NNE 6 10 - - - - - - - 21.9 1014.3 0.0
16/03:30am NNE 6 9 - - - - - - - 21.9 1013.8 0.0
16/03:00am NNE 5 9 - - - - - - - 21.9 1013.4 0.0
16/02:30am N 5 9 - - - - - - - 21.9 1013.3 0.0
16/02:00am N 5 9 - - - - - - - 21.9 1013.1 0.0
16/01:30am N 5 7 - - - - - - - 21.9 1013.2 0.0
16/01:00am N 5 7 - - - - - - - 21.9 1013.2 0.0
16/12:30am N 5 8 - - - - - - - 21.9 1013.3 0.0
16/12:00am N 4 8 - - - - - - - 22.0 1013.6 0.0
 
Date/Time
EST
Wind Sea
Height
m
Swell Vis
km
Cloud Weather Temp
°C
Press
hPa
Rain since
9am
mm
Dir  Spd
kts
Gust
kts
Height
m
Period
s
Dir
15/11:30pm N 6 11 - - - - - - - 22.1 1013.8 0.0
15/11:00pm N 6 11 - - - - - - - 22.2 1013.8 0.0
15/10:30pm N 7 13 - - - - - - - 22.2 1013.8 0.0
15/10:00pm N 7 13 - - - - - - - 22.2 1013.8 0.0
15/09:30pm N 7 13 - - - - - - - 22.2 1013.8 0.0
15/09:00pm N 6 12 - - - - - - - 22.2 1013.9 0.0
15/08:30pm N 7 12 - - - - - - - 22.1 1013.6 0.0
15/08:00pm N 7 14 - - - - - - - 22.1 1013.1 0.0
15/07:30pm N 7 13 - - - - - - - 22.2 1013.0 0.0
15/07:00pm NNE 8 15 - - - - - - - 22.2 1012.7 0.0
15/06:30pm NNE 8 14 - - - - - - - 22.2 1012.5 0.0
15/06:00pm NNE 9 15 - - - - - - - 22.3 1011.8 0.0
15/05:30pm NNE 10 18 - - - - - - - 22.8 1011.5 0.0
15/05:00pm NNE 9 19 - - - - - - - 23.3 1011.2 0.0
15/04:30pm NNE 10 16 - - - - - - - 23.8 1010.9 0.0
15/04:00pm NE 13 19 - - - - - - - 24.8 1010.7 0.0
15/03:30pm NNE 10 19 - - - - - - - 25.4 1010.7 0.0
15/03:00pm NNE 13 22 - - - - - - - 25.4 1010.7 0.0
15/02:30pm NNE 10 18 - - - - - - - 26.9 1010.9 0.0
15/02:00pm NNE 13 21 - - - - - - - 26.1 1011.4 0.0
15/01:30pm NNE 13 20 - - - - - - - 26.8 1011.8 0.0
15/01:00pm NNE 12 20 - - - - - - - 27.9 1011.8 0.0
15/12:30pm NNE 9 19 - - - - - - - 28.8 1012.2 0.0
15/12:00pm N 9 15 - - - - - - - 29.8 1012.8 0.0
15/11:30am NNW 7 11 - - - - - - - 26.9 1013.3 0.0
15/11:00am WNW 9 15 - - - - - - - 25.8 1014.0 0.0
15/10:30am W 7 15 - - - - - - - 26.7 1014.3 0.0
15/10:00am WNW 9 16 - - - - - - - 25.4 1014.6 0.0
15/09:30am WNW 7 14 - - - - - - - 24.8 1015.0 0.0
15/09:00am WNW 9 15 - - - - - - - 24.2 1015.2 0.0
15/08:30am NW 9 15 - - - - - - - 23.9 1015.4 0.0
15/08:00am WNW 9 17 - - - - - - - 23.0 1015.5 0.0
15/07:30am WNW 8 12 - - - - - - - 21.9 1015.7 0.0
15/07:00am NW 3 6 - - - - - - - 21.5 1015.7 0.0
15/06:30am NW 5 8 - - - - - - - 21.3 1015.3 0.0
15/06:00am NW 5 8 - - - - - - - 21.2 1015.1 0.0
15/05:30am NW 6 10 - - - - - - - 21.1 1015.0 0.0
15/05:00am NNW 5 9 - - - - - - - 20.9 1014.5 0.0
15/04:30am NNW 6 10 - - - - - - - 20.9 1014.4 0.0
15/04:00am NNW 6 11 - - - - - - - 20.8 1014.0 0.0
15/03:30am NNW 7 11 - - - - - - - 20.9 1014.1 0.0
15/03:00am NNW 6 15 - - - - - - - 20.8 1013.9 0.0
15/02:30am NNW 7 11 - - - - - - - 20.7 1013.9 0.0
15/02:00am NNW 6 10 - - - - - - - 20.6 1014.2 0.0
15/01:30am NW 5 9 - - - - - - - 20.5 1014.6 0.0
15/01:00am NW 7 12 - - - - - - - 20.3 1014.8 0.0
15/12:30am NNW 5 9 - - - - - - - 20.4 1015.3 0.0
15/12:00am NNW 5 8 - - - - - - - 20.5 1015.7 0.0
 
Date/Time
EST
Wind Sea
Height
m
Swell Vis
km
Cloud Weather Temp
°C
Press
hPa
Rain since
9am
mm
Dir  Spd
kts
Gust
kts
Height
m
Period
s
Dir
14/11:30pm NNW 6 12 - - - - - - - 20.6 1015.8 0.0
14/11:00pm N 6 11 - - - - - - - 20.5 1015.9 0.0
14/10:30pm N 7 12 - - - - - - - 20.6 1016.1 0.0
14/10:00pm NNE 7 12 - - - - - - - 20.6 1016.4 0.0
14/09:30pm N 6 10 - - - - - - - 20.5 1016.7 0.0
14/09:00pm NNW 5 8 - - - - - - - 20.2 1016.9 0.0
14/08:30pm NNW 5 8 - - - - - - - 20.3 1016.9 0.0
14/08:00pm N 5 9 - - - - - - - 20.4 1017.0 0.0
14/07:30pm N 5 8 - - - - - - - 20.5 1016.8 0.0
14/07:00pm N 7 13 - - - - - - - 20.6 1016.4 0.0
14/06:30pm N 7 11 - - - - - - - 20.7 1015.7 0.0
14/06:00pm NNE 7 13 - - - - - - - 20.9 1015.3 0.0
14/05:30pm NNE 8 15 - - - - - - - 21.3 1015.1 0.0
14/05:00pm NNE 9 15 - - - - - - - 21.9 1014.9 0.0
14/04:30pm NNE 9 15 - - - - - - - 22.6 1015.0 0.0
14/04:00pm NE 11 16 - - - - - - - 23.3 1014.7 0.0
14/03:30pm NE 11 18 - - - - - - - 24.1 1014.7 0.0
14/03:00pm NNE 11 16 - - - - - - - 24.6 1014.8 0.0
14/02:30pm NE 11 18 - - - - - - - 24.9 1015.0 0.0
14/02:00pm NNE 10 17 - - - - - - - 25.5 1015.6 0.0
14/01:30pm NE 11 17 - - - - - - - 25.9 1016.0 0.0
14/01:00pm NE 10 15 - - - - - - - 26.5 1016.3 0.0
14/12:30pm NE 9 15 - - - - - - - 26.9 1016.8 0.0
14/12:00pm NE 10 14 - - - - - - - 26.7 1017.3 0.0
14/11:30am NE 9 13 - - - - - - - 26.7 1017.9 0.0
14/11:00am NE 8 12 - - - - - - - 24.8 1018.3 0.0
14/10:30am NE 9 11 - - - - - - - 25.1 1018.6 0.0
14/10:00am NE 6 11 - - - - - - - 26.7 1018.9 0.0
14/09:30am ENE 7 12 - - - - - - - 25.0 1019.3 0.0
14/09:00am ENE 7 10 - - - - - - - 24.3 1019.6 0.0
14/08:30am ENE 6 9 - - - - - - - 24.1 1019.5 0.0
14/08:00am E 5 8 - - - - - - - 22.7 1019.5 0.0
14/07:30am E 4 6 - - - - - - - 21.6 1019.6 0.0
14/07:00am SE 4 7 - - - - - - - 20.7 1019.2 0.0
14/06:30am SSE 5 8 - - - - - - - 19.4 1019.2 0.0
14/06:00am SSE 7 9 - - - - - - - 18.0 1018.7 0.0
14/05:30am SSE 7 8 - - - - - - - 17.6 1018.3 0.0
14/05:00am SE 6 7 - - - - - - - 17.8 1018.0 0.0
14/04:30am SE 7 9 - - - - - - - 18.0 1017.7 0.0
14/04:00am SE 7 10 - - - - - - - 18.1 1017.6 0.0
14/03:30am ESE 5 9 - - - - - - - 18.5 1017.5 0.0
14/03:00am E 10 13 - - - - - - - 19.4 1017.3 0.0
14/02:30am E 11 16 - - - - - - - 19.5 1017.4 0.0
14/02:00am E 11 15 - - - - - - - 19.7 1017.5 0.0
14/01:30am E 11 16 - - - - - - - 19.7 1017.8 0.0
14/01:00am E 12 17 - - - - - - - 20.0 1018.0 0.0
14/12:30am ENE 12 18 - - - - - - - 20.1 1018.1 0.0
14/12:00am ENE 12 17 - - - - - - - 20.5 1018.2 0.0
 
Date/Time
EST
Wind Sea
Height
m
Swell Vis
km
Cloud Weather Temp
°C
Press
hPa
Rain since
9am
mm
Dir  Spd
kts
Gust
kts
Height
m
Period
s
Dir
13/11:30pm ENE 13 19 - - - - - - - 20.4 1018.4 0.0
13/11:00pm E 12 16 - - - - - - - 20.3 1018.5 0.0
13/10:30pm E 13 16 - - - - - - - 20.5 1018.2 0.0
13/10:00pm ENE 13 17 - - - - - - - 20.5 1018.1 0.0
13/09:30pm E 10 14 - - - - - - - 20.6 1018.0 0.0
13/09:00pm ENE 10 15 - - - - - - - 20.4 1018.0 0.0
13/08:30pm E 9 12 - - - - - - - 20.5 1017.6 0.0
13/08:00pm ENE 8 12 - - - - - - - 20.5 1017.3 0.0
13/07:30pm ENE 9 13 - - - - - - - 20.7 1016.7 0.0
13/07:00pm ENE 9 13 - - - - - - - 20.8 1016.2 0.0
13/06:30pm ENE 9 14 - - - - - - - 20.9 1015.9 0.0
13/06:00pm ENE 9 14 - - - - - - - 21.4 1015.3 0.0
13/05:30pm ENE 10 13 - - - - - - - 22.0 1014.9 0.0
13/05:00pm ENE 10 14 - - - - - - - 22.7 1014.5 0.0
13/04:30pm ENE 9 15 - - - - - - - 23.3 1014.1 0.0
13/04:00pm ENE 10 14 - - - - - - - 23.9 1013.8 0.0
13/03:30pm NE 9 15 - - - - - - - 24.2 1013.9 0.0
13/03:00pm NE 10 16 - - - - - - - 24.8 1013.8 0.0
13/02:30pm NE 11 16 - - - - - - - 25.3 1014.1 0.0
13/02:00pm NE 10 16 - - - - - - - 25.7 1014.3 0.0
13/01:30pm NE 10 15 - - - - - - - 25.7 1014.3 0.0
13/01:00pm NE 9 13 - - - - - - - 26.4 1014.7 0.0

Other formats

Comma delimited format used in spreadsheet applications
http://www.bom.gov.au/fwo/IDQ60701/IDQ60701.94380.axf

JavaScript Object Notation format (JSON) in row-major order
http://www.bom.gov.au/fwo/IDQ60701/IDQ60701.94380.json

Data quality

Most of these data are generated automatically and are frequently updated. Quality checks on data are not normally performed. It is possible for incorrect values to appear. Refer to information at About Latest Weather Observations and please check the disclaimer before using these data.